Time;durP1;ratioP1;P1;durP2;ratioP2;P2;SDS_P1;SDS_P2;PMS_P1;PMS_P2;Temp;Humidity;BMP_temperature;BMP_pressure;BME280_temperature;BME280_humidity;BME280_pressure;Samples;Min_cycle;Max_cycle;Signal;HPM_P1;HPM_P2
2023/12/10 00:02:16;;;;;;;14.95;4.60;;;;;;;18.33;57.75;99639.06;5065095;28;20115;-35
2023/12/10 00:04:43;;;;;;;12.10;4.25;;;;;;;18.32;58.21;99637.44;5082154;28;20115;-34
2023/12/10 00:07:08;;;;;;;17.05;5.40;;;;;;;18.30;58.21;99651.47;5074382;28;20194;-34
2023/12/10 00:09:34;;;;;;;16.33;4.53;;;;;;;18.30;58.17;99650.66;5074908;28;20511;-35
2023/12/10 00:11:59;;;;;;;18.55;5.25;;;;;;;18.27;58.11;99661.13;5077969;28;20024;-35
2023/12/10 00:14:25;;;;;;;21.70;5.00;;;;;;;18.26;58.28;99651.28;5077827;28;20111;-35
2023/12/10 00:16:50;;;;;;;14.45;4.65;;;;;;;18.24;58.46;99664.47;5080592;28;20029;-35
2023/12/10 00:19:16;;;;;;;15.50;4.55;;;;;;;18.22;58.33;99650.28;5090597;28;20027;-35
2023/12/10 00:21:41;;;;;;;17.15;4.82;;;;;;;18.21;58.40;99639.59;5078710;28;20393;-35
2023/12/10 00:24:07;;;;;;;17.42;4.53;;;;;;;18.19;58.33;99656.34;5056843;28;20521;-35
2023/12/10 00:26:32;;;;;;;14.43;4.63;;;;;;;18.20;58.50;99657.19;5072904;28;20059;-35
2023/12/10 00:28:58;;;;;;;12.88;4.40;;;;;;;18.17;58.32;99666.81;5077578;28;20481;-34
2023/12/10 00:31:23;;;;;;;14.32;4.38;;;;;;;18.16;58.49;99667.97;5072495;28;20028;-35
2023/12/10 00:33:48;;;;;;;17.15;4.30;;;;;;;18.16;58.80;99672.63;5074867;28;20032;-36
2023/12/10 00:36:15;;;;;;;18.98;4.70;;;;;;;18.14;58.60;99677.63;5081519;28;20029;-36
2023/12/10 00:38:42;;;;;;;15.13;4.00;;;;;;;18.14;58.54;99674.88;5081377;28;20071;-36
2023/12/10 00:41:09;;;;;;;17.35;4.38;;;;;;;18.11;58.33;99663.38;5068150;28;20128;-36
2023/12/10 00:43:35;;;;;;;23.08;4.78;;;;;;;18.11;58.46;99654.31;5066551;28;20036;-35
2023/12/10 00:46:00;;;;;;;15.07;3.83;;;;;;;18.10;58.67;99669.19;5088883;27;20249;-35
2023/12/10 00:48:25;;;;;;;18.95;4.20;;;;;;;18.09;58.77;99665.59;5059344;28;20031;-35
2023/12/10 00:50:51;;;;;;;18.48;4.25;;;;;;;18.08;59.03;99668.66;5056912;28;20055;-35
2023/12/10 00:53:16;;;;;;;17.58;4.28;;;;;;;18.06;58.77;99663.50;5073466;28;20058;-35
2023/12/10 00:55:42;;;;;;;18.02;4.60;;;;;;;18.05;58.69;99680.22;5070553;28;20028;-35
2023/12/10 00:58:09;;;;;;;16.08;4.20;;;;;;;18.05;58.63;99675.56;5081689;28;20043;-34
2023/12/10 01:00:34;;;;;;;17.17;4.80;;;;;;;18.02;59.00;99667.16;5080295;28;20687;-34
2023/12/10 01:03:00;;;;;;;12.27;3.75;;;;;;;18.01;58.82;99679.22;5082145;28;20481;-35
2023/12/10 01:05:25;;;;;;;12.80;4.22;;;;;;;18.03;58.92;99666.84;5076663;28;20027;-34
2023/12/10 01:07:51;;;;;;;14.35;3.85;;;;;;;18.04;58.35;99676.69;5080543;28;20095;-34
2023/12/10 01:10:16;;;;;;;15.45;4.00;;;;;;;18.03;58.60;99698.94;5076064;28;20024;-34
2023/12/10 01:12:42;;;;;;;15.88;4.28;;;;;;;18.01;58.66;99665.50;5076470;28;20527;-35
2023/12/10 01:15:10;;;;;;;19.52;4.05;;;;;;;18.00;58.72;99697.63;5069992;28;20108;-35
2023/12/10 01:17:35;;;;;;;13.93;4.65;;;;;;;17.99;58.74;99671.31;5058186;28;20103;-36
2023/12/10 01:20:03;;;;;;;14.27;4.15;;;;;;;18.00;58.83;99685.81;5078209;28;20020;-36
2023/12/10 01:22:29;;;;;;;13.15;3.95;;;;;;;17.99;58.89;99685.03;5068004;28;20028;-35
2023/12/10 01:24:55;;;;;;;13.23;3.92;;;;;;;17.99;58.91;99689.69;5063733;28;20020;-35
2023/12/10 01:27:21;;;;;;;19.00;4.30;;;;;;;17.98;58.76;99694.34;5051405;28;20020;-35
2023/12/10 01:29:47;;;;;;;16.13;4.60;;;;;;;17.98;58.86;99694.34;5074964;28;20017;-35
2023/12/10 01:32:12;;;;;;;12.80;4.05;;;;;;;17.99;58.96;99717.09;5078039;28;20082;-36
2023/12/10 01:34:37;;;;;;;15.45;3.80;;;;;;;17.99;58.40;99715.19;5076731;28;20111;-36
2023/12/10 01:37:03;;;;;;;15.73;4.07;;;;;;;18.00;58.48;99724.19;5073203;28;20443;-36
2023/12/10 01:39:30;;;;;;;16.15;4.45;;;;;;;17.99;58.65;99734.38;5064168;28;20073;-36
2023/12/10 01:41:56;;;;;;;13.02;3.80;;;;;;;17.98;58.59;99702.56;5067617;28;20157;-36
2023/12/10 01:44:22;;;;;;;14.45;3.85;;;;;;;17.98;58.78;99723.69;5060064;28;20709;-35
2023/12/10 01:46:47;;;;;;;16.52;4.28;;;;;;;17.96;58.72;99716.59;5074117;28;20028;-35
2023/12/10 01:49:13;;;;;;;18.15;3.90;;;;;;;17.97;58.64;99728.38;5081356;28;20028;-36
2023/12/10 01:51:39;;;;;;;15.57;4.20;;;;;;;17.97;58.75;99728.38;5075526;28;20099;-35
2023/12/10 01:54:04;;;;;;;15.60;3.88;;;;;;;17.97;58.51;99725.63;5059045;28;20335;-35
2023/12/10 01:56:30;;;;;;;14.45;3.97;;;;;;;17.99;58.69;99730.78;5068589;28;20508;-35
2023/12/10 01:58:56;;;;;;;15.90;4.75;;;;;;;17.99;58.61;99723.41;5076054;28;20185;-35
2023/12/10 02:01:23;;;;;;;12.65;4.07;;;;;;;17.99;58.66;99739.03;5052754;28;21111;-36
2023/12/10 02:03:48;;;;;;;15.32;4.40;;;;;;;17.97;58.67;99728.38;5079313;28;20523;-36
2023/12/10 02:06:14;;;;;;;16.48;4.10;;;;;;;17.96;58.47;99744.00;5060242;28;20032;-35
2023/12/10 02:08:40;;;;;;;17.08;4.50;;;;;;;17.96;58.53;99741.28;5080092;28;20031;-35
2023/12/10 02:11:05;;;;;;;13.90;4.43;;;;;;;17.94;58.71;99751.72;5065801;28;20466;-35
2023/12/10 02:13:31;;;;;;;14.88;4.35;;;;;;;17.94;58.33;99757.19;5072274;28;20536;-36
2023/12/10 02:15:56;;;;;;;20.80;4.57;;;;;;;17.93;58.54;99752.00;5074580;28;20023;-36
2023/12/10 02:18:22;;;;;;;16.88;4.35;;;;;;;17.92;59.20;99786.00;5083336;28;20059;-34
2023/12/10 02:20:48;;;;;;;11.07;4.00;;;;;;;17.91;58.76;99757.75;5082736;28;20043;-34
2023/12/10 02:23:35;;;;;;;20.17;5.45;;;;;;;17.90;58.43;99771.78;5079221;28;20120;-35
2023/12/10 02:26:00;;;;;;;16.92;4.07;;;;;;;17.89;58.90;99764.66;5065258;28;20107;-35
2023/12/10 02:28:26;;;;;;;18.27;4.93;;;;;;;17.89;58.64;99781.09;5077213;28;20111;-35
2023/12/10 02:30:51;;;;;;;12.63;4.07;;;;;;;17.89;58.66;99792.06;5078949;28;20233;-35
2023/12/10 02:33:17;;;;;;;16.38;4.32;;;;;;;17.87;59.06;99797.88;5082363;28;20028;-35
2023/12/10 02:35:42;;;;;;;14.93;3.95;;;;;;;17.86;59.14;99809.13;5079307;28;20216;-35
2023/12/10 02:38:08;;;;;;;14.10;3.95;;;;;;;17.84;59.00;99817.66;5081596;28;20412;-35
2023/12/10 02:40:33;;;;;;;17.40;4.10;;;;;;;17.83;59.22;99804.25;5067250;28;20024;-35
2023/12/10 02:43:00;;;;;;;16.58;4.40;;;;;;;17.81;59.38;99807.28;5076767;28;20020;-35
2023/12/10 02:45:26;;;;;;;14.48;4.05;;;;;;;17.79;59.29;99813.09;5081181;28;20020;-36
2023/12/10 02:47:51;;;;;;;16.05;4.50;;;;;;;17.80;59.38;99831.16;5072180;28;20524;-36
2023/12/10 02:50:16;;;;;;;14.77;4.28;;;;;;;17.79;59.33;99821.31;5080108;28;20140;-36
2023/12/10 02:52:42;;;;;;;17.52;4.53;;;;;;;17.80;59.54;99820.19;5080997;28;20404;-36
2023/12/10 02:55:10;;;;;;;17.00;4.88;;;;;;;17.80;59.41;99842.13;5084142;28;20031;-36
2023/12/10 02:57:36;;;;;;;16.63;4.50;;;;;;;17.80;59.55;99853.09;5058210;28;20129;-36
2023/12/10 03:00:02;;;;;;;19.10;4.63;;;;;;;17.80;59.57;99844.03;5058050;28;20025;-36
2023/12/10 03:02:28;;;;;;;16.25;4.63;;;;;;;17.80;59.49;99842.13;5048405;28;20035;-35
2023/12/10 03:04:53;;;;;;;16.95;4.28;;;;;;;17.81;59.36;99862.09;5047851;28;20017;-35
2023/12/10 03:07:18;;;;;;;14.95;4.38;;;;;;;17.80;59.48;99850.34;5062096;28;20107;-36
2023/12/10 03:09:44;;;;;;;18.70;4.43;;;;;;;17.80;59.30;99868.69;5056264;28;20052;-35
2023/12/10 03:12:09;;;;;;;17.23;4.32;;;;;;;17.79;59.09;99864.31;5063618;28;20320;-35
2023/12/10 03:14:35;;;;;;;14.65;4.32;;;;;;;17.79;59.48;99850.63;5061246;28;20024;-35
2023/12/10 03:17:00;;;;;;;17.67;4.28;;;;;;;17.78;59.65;99870.91;5092376;28;20033;-35
2023/12/10 03:19:26;;;;;;;17.92;4.53;;;;;;;17.77;59.77;99872.06;5055959;28;20107;-35
2023/12/10 03:21:51;;;;;;;15.10;4.47;;;;;;;17.76;59.49;99882.19;5060874;28;20358;-35
2023/12/10 03:24:17;;;;;;;15.73;4.20;;;;;;;17.77;59.64;99896.72;5067403;28;20374;-35
2023/12/10 03:26:42;;;;;;;18.33;4.18;;;;;;;17.78;59.67;99903.81;5058158;28;20398;-35
2023/12/10 03:29:08;;;;;;;14.45;4.07;;;;;;;17.78;59.31;99910.13;5056772;28;20358;-35
2023/12/10 03:31:33;;;;;;;16.20;4.53;;;;;;;17.80;59.54;99910.63;5048208;28;20036;-35
2023/12/10 03:33:59;;;;;;;17.80;4.38;;;;;;;17.80;59.26;99909.81;5057917;28;20029;-36
2023/12/10 03:36:24;;;;;;;19.52;4.72;;;;;;;17.80;59.31;99927.09;5054931;28;20021;-36
2023/12/10 03:38:49;;;;;;;18.52;4.45;;;;;;;17.79;59.33;99932.84;5063745;28;20107;-36
2023/12/10 03:41:15;;;;;;;16.98;4.25;;;;;;;17.78;59.30;99948.50;5057171;28;20107;-35
2023/12/10 03:43:40;;;;;;;14.88;4.25;;;;;;;17.77;59.25;99919.44;5051622;28;20029;-35
2023/12/10 03:46:06;;;;;;;17.38;4.65;;;;;;;17.76;59.42;99934.25;5056878;28;20493;-35
2023/12/10 03:48:31;;;;;;;16.60;4.70;;;;;;;17.77;59.14;99940.56;5061654;28;20027;-35
2023/12/10 03:50:56;;;;;;;18.55;4.55;;;;;;;17.75;59.51;99943.59;5063434;28;20017;-35
2023/12/10 03:53:22;;;;;;;17.75;4.50;;;;;;;17.74;59.19;99938.41;5059986;28;20085;-35
2023/12/10 03:55:48;;;;;;;13.07;4.18;;;;;;;17.75;59.42;99923.59;5095172;28;20595;-35
2023/12/10 03:58:13;;;;;;;16.60;4.70;;;;;;;17.73;59.47;99954.03;5075340;28;20032;-35
2023/12/10 04:00:39;;;;;;;17.15;4.63;;;;;;;17.75;58.91;99946.31;5081152;28;20028;-35
2023/12/10 04:03:04;;;;;;;17.63;4.50;;;;;;;17.74;59.40;99966.66;5078762;28;20036;-35
2023/12/10 04:05:29;;;;;;;14.60;3.90;;;;;;;17.74;59.08;99982.25;5082870;28;20107;-35
2023/12/10 04:07:55;;;;;;;16.05;4.50;;;;;;;17.73;59.35;99969.66;5079450;28;20020;-35
2023/12/10 04:10:20;;;;;;;15.75;3.97;;;;;;;17.71;59.42;99958.19;5082672;28;20103;-36
2023/12/10 04:12:46;;;;;;;14.50;4.22;;;;;;;17.73;59.27;99980.63;5080387;28;20024;-35
2023/12/10 04:15:12;;;;;;;16.02;4.40;;;;;;;17.72;59.27;100015.44;5082668;28;20024;-36
2023/12/10 04:17:37;;;;;;;21.75;4.38;;;;;;;17.72;59.42;99998.16;5079380;28;20017;-35
2023/12/10 04:20:03;;;;;;;20.65;4.68;;;;;;;17.72;59.21;100007.22;5076571;28;20032;-35
2023/12/10 04:22:28;;;;;;;15.75;4.38;;;;;;;17.73;59.33;100010.78;5073970;28;20126;-35
2023/12/10 04:24:54;;;;;;;14.77;4.63;;;;;;;17.72;59.29;100009.13;5073780;28;20016;-35
2023/12/10 04:27:19;;;;;;;17.15;4.55;;;;;;;17.72;59.13;100029.16;5085678;28;20031;-35
2023/12/10 04:29:45;;;;;;;15.32;4.60;;;;;;;17.73;59.10;100006.13;5083064;28;20066;-36
2023/12/10 04:32:11;;;;;;;14.13;3.95;;;;;;;17.72;59.18;100029.16;5081531;28;20059;-36
2023/12/10 04:34:36;;;;;;;20.38;4.60;;;;;;;17.71;59.22;100032.19;5079878;28;20097;-36
2023/12/10 04:37:02;;;;;;;16.98;4.28;;;;;;;17.72;59.19;100044.75;5062539;28;20510;-35
2023/12/10 04:39:27;;;;;;;14.65;3.95;;;;;;;17.70;59.22;100036.03;5079818;28;20118;-36
2023/12/10 04:41:53;;;;;;;14.38;3.88;;;;;;;17.70;59.29;100033.28;5064717;28;20076;-36
2023/12/10 04:44:19;;;;;;;14.35;4.10;;;;;;;17.70;59.06;100047.81;5075721;28;20035;-36
2023/12/10 04:46:44;;;;;;;14.38;4.13;;;;;;;17.70;59.16;100063.44;5054320;28;20104;-36
2023/12/10 04:49:10;;;;;;;16.65;4.53;;;;;;;17.69;59.20;100053.59;5075919;28;20034;-36
2023/12/10 04:51:35;;;;;;;15.80;4.32;;;;;;;17.70;59.07;100060.69;5074249;28;20024;-36
2023/12/10 04:54:00;;;;;;;14.82;4.05;;;;;;;17.68;59.00;100066.44;5086097;28;20522;-36
2023/12/10 04:56:27;;;;;;;13.32;3.88;;;;;;;17.69;58.90;100067.28;5084620;28;20036;-35
2023/12/10 04:58:52;;;;;;;11.75;3.67;;;;;;;17.68;59.20;100093.06;5086958;27;20035;-35
2023/12/10 05:01:18;;;;;;;15.05;4.30;;;;;;;17.68;59.09;100080.16;5065843;28;20549;-35
2023/12/10 05:03:43;;;;;;;13.07;3.88;;;;;;;17.68;59.15;100087.56;5091663;28;20040;-35
2023/12/10 05:06:08;;;;;;;18.33;4.60;;;;;;;17.68;59.18;100109.50;5071430;28;20016;-35
2023/12/10 05:08:34;;;;;;;20.65;4.20;;;;;;;17.66;59.21;100120.75;5060319;28;20123;-35
2023/12/10 05:10:59;;;;;;;15.27;4.35;;;;;;;17.67;59.18;100118.81;5082985;28;20016;-35
2023/12/10 05:13:25;;;;;;;15.82;4.20;;;;;;;17.65;59.14;100122.66;5080316;28;20121;-35
2023/12/10 05:15:51;;;;;;;15.00;4.38;;;;;;;17.67;59.10;100121.56;5076869;28;20060;-35
2023/12/10 05:18:16;;;;;;;12.35;3.67;;;;;;;17.65;59.10;100119.94;5059217;28;20570;-35
2023/12/10 05:20:42;;;;;;;12.68;3.95;;;;;;;17.65;59.26;100138.31;5093014;27;20122;-36
2023/12/10 05:23:07;;;;;;;14.15;3.70;;;;;;;17.66;59.20;100123.50;5074060;28;20069;-35
2023/12/10 05:25:32;;;;;;;15.82;4.53;;;;;;;17.65;59.23;100119.13;5070373;28;20035;-36
2023/12/10 05:27:58;;;;;;;15.45;4.15;;;;;;;17.64;59.18;100145.72;5081460;28;20111;-36
2023/12/10 05:30:23;;;;;;;13.80;4.32;;;;;;;17.64;58.87;100139.41;5075751;28;20123;-36
2023/12/10 05:32:49;;;;;;;18.88;4.28;;;;;;;17.64;59.02;100139.41;5072152;28;20498;-36
2023/12/10 05:35:14;;;;;;;13.88;4.03;;;;;;;17.65;59.07;100158.28;5067918;28;20394;-36
2023/12/10 05:37:40;;;;;;;19.35;4.43;;;;;;;17.64;59.00;100164.06;5072563;28;20040;-36
2023/12/10 05:40:06;;;;;;;11.80;3.55;;;;;;;17.65;58.99;100168.44;5077356;28;20039;-36
2023/12/10 05:42:31;;;;;;;15.38;4.25;;;;;;;17.64;58.95;100172.28;5077977;28;20107;-36
2023/12/10 05:44:58;;;;;;;15.52;4.05;;;;;;;17.65;58.90;100188.44;5060969;28;20028;-35
2023/12/10 05:47:24;;;;;;;12.23;3.88;;;;;;;17.65;59.18;100195.84;5072506;28;20020;-35
2023/12/10 05:49:49;;;;;;;17.13;4.05;;;;;;;17.66;59.16;100202.97;5078391;28;20035;-35
2023/12/10 05:52:15;;;;;;;15.05;4.18;;;;;;;17.69;59.25;100207.06;5056140;28;20032;-35
2023/12/10 05:54:41;;;;;;;18.23;4.15;;;;;;;17.72;59.36;100212.78;5075920;28;20024;-35
2023/12/10 05:57:06;;;;;;;14.32;3.88;;;;;;;17.77;59.31;100231.09;5071680;28;20471;-35
2023/12/10 05:59:31;;;;;;;11.02;3.78;;;;;;;17.84;59.02;100217.88;5075191;28;20468;-36
2023/12/10 06:01:57;;;;;;;14.40;3.90;;;;;;;17.89;59.17;100225.19;5067713;28;20115;-36
2023/12/10 06:04:22;;;;;;;15.30;3.80;;;;;;;17.96;59.12;100228.44;5076462;28;20020;-35
2023/12/10 06:06:48;;;;;;;13.13;4.10;;;;;;;18.05;58.86;100232.19;5078044;28;20085;-36
2023/12/10 06:09:14;;;;;;;14.32;3.92;;;;;;;18.13;58.91;100227.97;5079387;28;20032;-36
2023/12/10 06:11:40;;;;;;;11.32;3.80;;;;;;;18.22;58.95;100263.78;5082671;28;20032;-36
2023/12/10 06:14:05;;;;;;;11.95;4.30;;;;;;;18.30;58.74;100270.59;5080229;28;20097;-36
2023/12/10 06:16:31;;;;;;;15.50;4.13;;;;;;;18.40;58.59;100265.75;5077936;28;20133;-36
2023/12/10 06:18:56;;;;;;;13.27;3.75;;;;;;;18.50;58.61;100275.00;5076079;28;20020;-36
2023/12/10 06:21:22;;;;;;;11.90;3.83;;;;;;;18.60;58.76;100272.94;5085663;28;20494;-36
2023/12/10 06:23:47;;;;;;;15.80;4.30;;;;;;;18.71;58.50;100281.84;5081809;28;20028;-36
2023/12/10 06:26:12;;;;;;;11.52;3.92;;;;;;;18.80;58.28;100278.44;5072137;28;20097;-36
2023/12/10 06:28:38;;;;;;;12.77;3.85;;;;;;;18.88;58.22;100291.50;5076341;28;20040;-36
2023/12/10 06:31:03;;;;;;;14.18;3.90;;;;;;;18.94;57.80;100284.06;5055702;28;20089;-36
2023/12/10 06:33:32;;;;;;;9.85;3.47;;;;;;;18.98;57.89;100307.06;5074401;28;20110;-36
2023/12/10 06:35:57;;;;;;;14.43;4.32;;;;;;;19.01;57.84;100303.72;5074741;28;20093;-36
2023/12/10 06:38:22;;;;;;;11.07;4.25;;;;;;;19.02;57.62;100325.41;5076231;28;20032;-36
2023/12/10 06:40:48;;;;;;;15.15;4.55;;;;;;;19.04;57.64;100327.84;5081715;28;20035;-35
2023/12/10 06:43:13;;;;;;;10.73;3.80;;;;;;;19.05;57.45;100326.72;5071614;28;20469;-36
2023/12/10 06:45:39;;;;;;;11.50;3.65;;;;;;;19.04;57.70;100325.94;5074248;28;20020;-37
2023/12/10 06:48:06;;;;;;;13.45;3.90;;;;;;;19.03;57.50;100326.19;5070891;28;20020;-36
2023/12/10 06:50:31;;;;;;;12.10;4.28;;;;;;;19.04;57.38;100333.34;5068080;28;20020;-36
2023/12/10 06:52:57;;;;;;;14.57;3.92;;;;;;;19.05;57.79;100318.50;5075432;28;20499;-35
2023/12/10 06:55:22;;;;;;;15.82;4.50;;;;;;;19.03;57.70;100326.19;5073117;28;20029;-35
2023/12/10 06:57:48;;;;;;;14.35;3.90;;;;;;;19.04;57.71;100333.34;5071759;28;20064;-36
2023/12/10 07:00:14;;;;;;;11.35;3.95;;;;;;;19.02;57.45;100335.56;5062086;28;20052;-36
2023/12/10 07:02:39;;;;;;;12.25;4.10;;;;;;;19.01;57.48;100348.47;5080713;28;20034;-36
2023/12/10 07:05:05;;;;;;;12.82;3.88;;;;;;;19.00;57.65;100343.28;5079932;28;20023;-37
2023/12/10 07:07:31;;;;;;;13.05;3.95;;;;;;;18.99;57.37;100336.16;5072587;28;20020;-36
2023/12/10 07:09:57;;;;;;;9.43;3.58;;;;;;;18.95;57.31;100335.94;5077960;28;20024;-36
2023/12/10 07:12:23;;;;;;;11.20;4.40;;;;;;;18.91;57.23;100332.94;5062179;28;20038;-35
2023/12/10 07:14:48;;;;;;;11.40;3.78;;;;;;;18.89;57.51;100343.38;5081694;28;20036;-36
2023/12/10 07:17:14;;;;;;;13.43;4.07;;;;;;;18.87;57.30;100358.50;5085106;28;20023;-35
2023/12/10 07:19:40;;;;;;;11.20;4.22;;;;;;;18.85;57.57;100369.00;5079471;28;20036;-35
2023/12/10 07:22:05;;;;;;;12.23;3.80;;;;;;;18.86;57.43;100376.94;5089713;28;20031;-35
2023/12/10 07:24:31;;;;;;;15.18;4.00;;;;;;;18.85;57.29;100383.53;5076312;28;20024;-36
2023/12/10 07:26:57;;;;;;;12.02;3.45;;;;;;;18.87;57.52;100392.28;5077999;28;20537;-36
2023/12/10 07:29:22;;;;;;;9.98;3.47;;;;;;;18.89;57.40;100397.47;5066213;28;20069;-35
2023/12/10 07:31:48;;;;;;;11.30;4.18;;;;;;;18.91;57.64;100395.31;5077963;28;20023;-36
2023/12/10 07:34:13;;;;;;;11.73;3.90;;;;;;;18.94;57.32;100402.94;5077579;28;20059;-35
2023/12/10 07:36:39;;;;;;;10.93;3.63;;;;;;;18.97;57.48;100420.75;5051874;28;20323;-36
2023/12/10 07:39:04;;;;;;;13.75;3.85;;;;;;;18.98;57.54;100412.25;5076669;28;20495;-36
2023/12/10 07:41:30;;;;;;;12.73;4.03;;;;;;;19.01;57.31;100430.88;5086948;28;20119;-36
2023/12/10 07:43:55;;;;;;;9.35;3.33;;;;;;;19.00;57.14;100440.22;5068845;28;20028;-36
2023/12/10 07:46:20;;;;;;;10.20;3.50;;;;;;;18.98;57.12;100431.47;5077223;28;20111;-35
2023/12/10 07:48:46;;;;;;;14.73;4.38;;;;;;;18.98;57.28;100425.13;5080968;28;20036;-36
2023/12/10 07:51:12;;;;;;;12.27;3.70;;;;;;;18.95;57.35;100437.53;5085120;28;20031;-36
2023/12/10 07:53:37;;;;;;;11.27;3.90;;;;;;;18.94;57.46;100429.59;5080042;28;20047;-36
2023/12/10 07:56:03;;;;;;;12.45;4.28;;;;;;;18.91;57.42;100436.50;5067613;28;20040;-36
2023/12/10 07:58:28;;;;;;;14.57;4.18;;;;;;;18.90;57.50;100451.28;5050564;28;20040;-35
2023/12/10 08:00:54;;;;;;;11.85;3.90;;;;;;;18.89;57.43;100455.94;5073551;28;20038;-36
2023/12/10 08:03:19;;;;;;;12.10;3.45;;;;;;;18.88;57.43;100434.28;5054544;28;20065;-36
2023/12/10 08:05:45;;;;;;;11.68;3.72;;;;;;;18.88;57.53;100439.78;5079368;28;20066;-36
2023/12/10 08:08:11;;;;;;;14.75;4.00;;;;;;;18.87;57.44;100451.88;5072795;28;20446;-36
2023/12/10 08:10:36;;;;;;;11.70;3.67;;;;;;;18.84;57.67;100452.47;5094258;28;20110;-36
2023/12/10 08:13:02;;;;;;;13.07;3.58;;;;;;;18.84;57.55;100461.50;5081517;28;20036;-36
2023/12/10 08:15:27;;;;;;;12.88;4.05;;;;;;;18.83;57.44;100467.31;5082568;28;20106;-36
2023/12/10 08:17:53;;;;;;;11.98;3.55;;;;;;;18.81;57.37;100459.38;5084394;28;20048;-35
2023/12/10 08:20:18;;;;;;;12.10;3.72;;;;;;;18.79;57.31;100464.31;5085825;28;20038;-36
2023/12/10 08:22:44;;;;;;;12.60;3.92;;;;;;;18.78;57.29;100470.91;5078412;28;20111;-35
2023/12/10 08:25:10;;;;;;;13.27;3.60;;;;;;;18.76;57.65;100479.44;5076632;28;20033;-35
2023/12/10 08:27:35;;;;;;;11.05;3.45;;;;;;;18.76;57.38;100478.59;5057881;28;20039;-36
2023/12/10 08:30:01;;;;;;;13.57;3.45;;;;;;;18.74;57.54;100480.84;5077188;28;20023;-36
2023/12/10 08:32:27;;;;;;;10.15;3.80;;;;;;;18.72;57.48;100503.09;5067850;28;20036;-35
2023/12/10 08:34:52;;;;;;;14.48;3.60;;;;;;;18.71;57.37;100482.25;5078276;28;20028;-36
2023/12/10 08:37:18;;;;;;;14.02;3.70;;;;;;;18.71;57.43;100490.47;5082247;28;20016;-36
2023/12/10 08:39:43;;;;;;;12.85;4.00;;;;;;;18.68;57.57;100498.47;5077356;28;20040;-36
2023/12/10 08:42:09;;;;;;;16.23;3.78;;;;;;;18.66;57.67;100486.97;5075272;28;20202;-35
2023/12/10 08:44:34;;;;;;;15.68;4.07;;;;;;;18.65;57.61;100504.53;5072596;28;20110;-36
2023/12/10 08:46:59;;;;;;;12.77;3.63;;;;;;;18.63;57.32;100493.84;5080556;28;20031;-36
2023/12/10 08:49:25;;;;;;;9.82;3.40;;;;;;;18.60;57.74;100499.91;5077531;28;20427;-36
2023/12/10 08:51:51;;;;;;;13.52;4.05;;;;;;;18.61;57.48;100504.28;5074354;28;20480;-37
2023/12/10 08:54:16;;;;;;;10.52;3.83;;;;;;;18.59;57.57;100506.53;5074356;28;20228;-37
2023/12/10 08:56:42;;;;;;;13.52;3.97;;;;;;;18.57;57.54;100514.22;5077717;28;20048;-36
2023/12/10 08:59:07;;;;;;;14.05;3.72;;;;;;;18.56;57.46;100516.13;5071869;28;20024;-35
2023/12/10 09:01:32;;;;;;;15.20;3.80;;;;;;;18.54;57.64;100515.63;5087034;28;20024;-35
2023/12/10 09:03:59;;;;;;;15.25;3.72;;;;;;;18.54;57.43;100520.28;5078496;28;20028;-36
2023/12/10 09:06:24;;;;;;;12.75;3.78;;;;;;;18.52;57.62;100523.31;5074731;28;20020;-36
2023/12/10 09:08:50;;;;;;;10.98;3.42;;;;;;;18.51;57.38;100532.66;5050811;28;20024;-36
2023/12/10 09:11:15;;;;;;;13.10;3.88;;;;;;;18.51;57.78;100538.13;5081674;28;20035;-34
2023/12/10 09:13:41;;;;;;;11.95;3.65;;;;;;;18.50;57.58;100532.94;5090611;28;20027;-35
2023/12/10 09:16:07;;;;;;;11.05;3.67;;;;;;;18.49;57.98;100532.13;5079898;28;20027;-37
2023/12/10 09:18:33;;;;;;;11.45;3.58;;;;;;;18.50;57.75;100541.19;5080640;28;20032;-37
2023/12/10 09:20:59;;;;;;;11.07;3.90;;;;;;;18.50;57.61;100532.94;5081366;28;20472;-35
2023/12/10 09:23:25;;;;;;;11.38;3.50;;;;;;;18.50;57.66;100531.00;5073443;28;20489;-36
2023/12/10 09:25:51;;;;;;;12.68;3.97;;;;;;;18.50;57.77;100530.19;5074213;28;20024;-36
2023/12/10 09:28:16;;;;;;;12.55;3.38;;;;;;;18.50;57.59;100539.25;5078498;28;20629;-36
2023/12/10 09:30:42;;;;;;;10.82;3.42;;;;;;;18.51;57.71;100548.31;5074692;28;20024;-36
2023/12/10 09:33:08;;;;;;;13.98;3.72;;;;;;;18.52;57.97;100544.47;5066468;28;20026;-36
2023/12/10 09:35:33;;;;;;;9.05;3.22;;;;;;;18.52;57.78;100553.50;5073084;28;20024;-36
2023/12/10 09:38:00;;;;;;;11.82;3.90;;;;;;;18.53;57.65;100562.56;5073348;28;20081;-36
2023/12/10 09:40:25;;;;;;;14.60;3.90;;;;;;;18.53;57.77;100570.81;5052400;28;20485;-36
2023/12/10 09:42:51;;;;;;;11.57;3.60;;;;;;;18.53;57.74;100571.63;5075355;28;20026;-36
2023/12/10 09:45:16;;;;;;;13.60;3.97;;;;;;;18.53;58.02;100566.13;5080038;28;20115;-36
2023/12/10 09:47:44;;;;;;;10.70;3.60;;;;;;;18.54;57.86;100570.50;5068837;28;20220;-36
2023/12/10 09:50:10;;;;;;;9.30;3.55;;;;;;;18.55;57.71;100579.56;5078814;28;20031;-35
2023/12/10 09:52:35;;;;;;;10.60;3.53;;;;;;;18.56;57.91;100572.97;5058320;28;20028;-36
2023/12/10 09:55:01;;;;;;;16.58;3.53;;;;;;;18.56;58.10;100579.25;5076384;28;20020;-36
2023/12/10 09:57:29;;;;;;;12.80;3.30;;;;;;;18.57;57.82;100564.44;5088069;28;20048;-36
2023/12/10 09:59:56;;;;;;;11.00;3.50;;;;;;;18.58;57.91;100563.31;5068465;28;20048;-35
2023/12/10 10:02:32;;;;;;;9.90;3.47;;;;;;;18.59;58.18;100569.66;5073222;28;20031;-36
2023/12/10 10:04:58;;;;;;;12.18;3.50;;;;;;;18.60;58.13;100565.78;5061839;28;20040;-36
2023/12/10 10:07:23;;;;;;;12.48;3.50;;;;;;;18.64;58.27;100557.78;5064797;28;20152;-36
2023/12/10 10:09:50;;;;;;;11.27;3.47;;;;;;;18.66;58.45;100564.63;5080296;28;20107;-36
2023/12/10 10:12:16;;;;;;;11.82;3.20;;;;;;;18.72;58.30;100571.75;5079136;28;20479;-35
2023/12/10 10:14:55;;;;;;;10.63;3.50;;;;;;;18.77;58.37;100562.63;5056059;28;20123;-35
2023/12/10 10:17:27;;;;;;;8.10;3.40;;;;;;;18.83;58.36;100572.44;5078415;28;20167;-36
2023/12/10 10:19:54;;;;;;;9.18;3.47;;;;;;;18.89;58.22;100571.28;5062340;28;20016;-36
2023/12/10 10:22:23;;;;;;;15.13;3.60;;;;;;;18.94;58.39;100573.19;5074947;28;20162;-36
2023/12/10 10:24:51;;;;;;;12.40;3.47;;;;;;;18.99;57.99;100567.66;5075989;28;20389;-36
2023/12/10 10:27:17;;;;;;;11.18;3.10;;;;;;;19.05;58.23;100580.22;5079196;28;20020;-36
2023/12/10 10:29:43;;;;;;;11.98;3.40;;;;;;;19.10;57.82;100568.38;5080681;28;20321;-36
2023/12/10 10:32:10;;;;;;;10.93;3.22;;;;;;;19.12;57.84;100560.66;5086639;28;20082;-36
2023/12/10 10:34:36;;;;;;;10.07;3.50;;;;;;;19.16;57.80;100558.97;5075332;28;20103;-35
2023/12/10 10:37:01;;;;;;;9.80;3.35;;;;;;;19.17;57.73;100557.06;5075437;28;20028;-36
2023/12/10 10:39:28;;;;;;;12.88;3.40;;;;;;;19.17;57.85;100549.63;5052393;28;20024;-36
2023/12/10 10:41:54;;;;;;;10.50;3.30;;;;;;;19.19;57.83;100547.41;5057836;28;20107;-36
2023/12/10 10:44:20;;;;;;;8.85;3.38;;;;;;;19.20;57.75;100542.72;5052323;28;20071;-36
2023/12/10 10:46:45;;;;;;;10.02;3.17;;;;;;;19.20;57.75;100532.56;5066647;28;20119;-35
2023/12/10 10:49:11;;;;;;;6.85;3.22;;;;;;;19.21;57.79;100519.63;5050711;28;20024;-37
2023/12/10 10:51:37;;;;;;;9.68;3.00;;;;;;;19.21;57.94;100536.13;5081450;28;20430;-36
2023/12/10 10:54:04;;;;;;;9.40;3.00;;;;;;;19.22;57.79;100530.31;5064789;28;20476;-35
2023/12/10 10:56:29;;;;;;;9.50;3.05;;;;;;;19.23;57.71;100529.22;5061936;28;20444;-35
2023/12/10 10:58:55;;;;;;;10.30;3.30;;;;;;;19.25;57.77;100526.16;5047590;28;20035;-36
2023/12/10 11:01:36;;;;;;;9.68;2.95;;;;;;;19.24;58.04;100527.31;5056336;28;20033;-36
2023/12/10 11:04:02;;;;;;;9.57;3.38;;;;;;;19.26;58.10;100522.31;5057893;28;20079;-35
2023/12/10 11:06:28;;;;;;;11.38;3.88;;;;;;;19.26;57.76;100513.25;5062372;28;20036;-35
2023/12/10 11:09:00;;;;;;;9.32;3.00;;;;;;;19.27;57.86;100509.41;5059331;28;20498;-35
2023/12/10 11:11:26;;;;;;;8.07;3.08;;;;;;;19.27;58.11;100512.16;5059898;28;20042;-36
2023/12/10 11:13:53;;;;;;;11.13;3.30;;;;;;;19.27;58.07;100501.97;5046757;28;20033;-36
2023/12/10 11:16:21;;;;;;;11.57;3.47;;;;;;;19.28;58.34;100503.63;5061406;28;20020;-37